sensor_id;sensor_type;location;lat;lon;timestamp;temperature;humidity
420;DHT22;42600;54.408;13.016;2023-06-14T00:01:34;15.00;92.70
420;DHT22;42600;54.408;13.016;2023-06-14T00:04:01;15.00;92.70
420;DHT22;42600;54.408;13.016;2023-06-14T00:06:28;15.00;92.70
420;DHT22;42600;54.408;13.016;2023-06-14T00:08:55;15.00;92.70
420;DHT22;42600;54.408;13.016;2023-06-14T00:11:22;14.90;92.70
420;DHT22;42600;54.408;13.016;2023-06-14T00:13:50;14.90;92.70
420;DHT22;42600;54.408;13.016;2023-06-14T00:16:16;14.90;92.70
420;DHT22;42600;54.408;13.016;2023-06-14T00:18:44;14.90;92.70
420;DHT22;42600;54.408;13.016;2023-06-14T00:21:11;14.90;92.70
420;DHT22;42600;54.408;13.016;2023-06-14T00:23:37;14.90;92.70
420;DHT22;42600;54.408;13.016;2023-06-14T00:26:04;14.90;92.70
420;DHT22;42600;54.408;13.016;2023-06-14T00:28:31;14.90;92.70
420;DHT22;42600;54.408;13.016;2023-06-14T00:30:58;14.90;92.70
420;DHT22;42600;54.408;13.016;2023-06-14T00:33:25;14.90;92.70
420;DHT22;42600;54.408;13.016;2023-06-14T00:35:51;14.90;92.70
420;DHT22;42600;54.408;13.016;2023-06-14T00:38:19;14.90;92.70
420;DHT22;42600;54.408;13.016;2023-06-14T00:40:46;14.90;92.70
420;DHT22;42600;54.408;13.016;2023-06-14T00:43:12;14.90;92.70
420;DHT22;42600;54.408;13.016;2023-06-14T00:45:39;14.90;92.70
420;DHT22;42600;54.408;13.016;2023-06-14T00:48:07;14.90;92.70
420;DHT22;42600;54.408;13.016;2023-06-14T00:50:35;14.90;92.70
420;DHT22;42600;54.408;13.016;2023-06-14T00:53:03;15.00;92.70
420;DHT22;42600;54.408;13.016;2023-06-14T00:55:31;15.00;92.70
420;DHT22;42600;54.408;13.016;2023-06-14T00:57:58;15.00;92.70
420;DHT22;42600;54.408;13.016;2023-06-14T01:00:25;15.00;92.70
420;DHT22;42600;54.408;13.016;2023-06-14T01:02:53;15.10;92.70
420;DHT22;42600;54.408;13.016;2023-06-14T01:05:21;15.10;92.70
420;DHT22;42600;54.408;13.016;2023-06-14T01:08:00;15.10;92.70
420;DHT22;42600;54.408;13.016;2023-06-14T01:10:37;15.00;92.70
420;DHT22;42600;54.408;13.016;2023-06-14T01:13:11;15.10;92.70
420;DHT22;42600;54.408;13.016;2023-06-14T01:15:39;15.10;92.70
420;DHT22;42600;54.408;13.016;2023-06-14T01:18:07;15.00;92.70
420;DHT22;42600;54.408;13.016;2023-06-14T01:20:44;15.10;92.70
420;DHT22;42600;54.408;13.016;2023-06-14T01:23:16;15.10;92.70
420;DHT22;42600;54.408;13.016;2023-06-14T01:25:42;15.10;92.70
420;DHT22;42600;54.408;13.016;2023-06-14T01:28:10;15.10;92.70
420;DHT22;42600;54.408;13.016;2023-06-14T01:30:39;15.00;92.70
420;DHT22;42600;54.408;13.016;2023-06-14T01:33:11;15.00;92.70
420;DHT22;42600;54.408;13.016;2023-06-14T01:35:38;15.10;92.70
420;DHT22;42600;54.408;13.016;2023-06-14T01:38:06;15.00;92.70
420;DHT22;42600;54.408;13.016;2023-06-14T01:40:35;15.00;92.70
420;DHT22;42600;54.408;13.016;2023-06-14T01:43:02;15.00;92.70
420;DHT22;42600;54.408;13.016;2023-06-14T01:45:30;15.00;92.70
420;DHT22;42600;54.408;13.016;2023-06-14T01:47:57;15.00;92.70
420;DHT22;42600;54.408;13.016;2023-06-14T01:50:28;15.00;92.70
420;DHT22;42600;54.408;13.016;2023-06-14T01:52:54;15.00;92.70
420;DHT22;42600;54.408;13.016;2023-06-14T01:55:21;15.00;92.70
420;DHT22;42600;54.408;13.016;2023-06-14T01:57:51;15.00;92.70
420;DHT22;42600;54.408;13.016;2023-06-14T02:00:18;15.00;92.70
420;DHT22;42600;54.408;13.016;2023-06-14T02:02:45;15.00;92.70
420;DHT22;42600;54.408;13.016;2023-06-14T02:05:12;15.00;92.70
420;DHT22;42600;54.408;13.016;2023-06-14T02:07:38;15.00;92.70
420;DHT22;42600;54.408;13.016;2023-06-14T02:10:05;15.00;92.70
420;DHT22;42600;54.408;13.016;2023-06-14T02:12:32;15.00;92.70
420;DHT22;42600;54.408;13.016;2023-06-14T02:15:00;15.00;92.70
420;DHT22;42600;54.408;13.016;2023-06-14T02:17:26;14.90;92.70
420;DHT22;42600;54.408;13.016;2023-06-14T02:19:53;14.90;92.70
420;DHT22;42600;54.408;13.016;2023-06-14T02:22:19;14.90;92.70
420;DHT22;42600;54.408;13.016;2023-06-14T02:24:47;14.90;92.70
420;DHT22;42600;54.408;13.016;2023-06-14T02:27:14;14.90;92.70
420;DHT22;42600;54.408;13.016;2023-06-14T02:29:40;14.80;92.70
420;DHT22;42600;54.408;13.016;2023-06-14T02:32:08;14.80;92.70
420;DHT22;42600;54.408;13.016;2023-06-14T02:34:35;14.80;92.70
420;DHT22;42600;54.408;13.016;2023-06-14T02:37:02;14.80;92.70
420;DHT22;42600;54.408;13.016;2023-06-14T02:39:29;14.80;92.70
420;DHT22;42600;54.408;13.016;2023-06-14T02:41:55;14.80;92.70
420;DHT22;42600;54.408;13.016;2023-06-14T02:44:24;14.80;92.70
420;DHT22;42600;54.408;13.016;2023-06-14T02:46:51;14.80;92.70
420;DHT22;42600;54.408;13.016;2023-06-14T02:49:19;14.80;92.70
420;DHT22;42600;54.408;13.016;2023-06-14T02:51:46;14.80;92.70
420;DHT22;42600;54.408;13.016;2023-06-14T02:54:12;14.80;92.70
420;DHT22;42600;54.408;13.016;2023-06-14T02:56:39;14.80;92.70
420;DHT22;42600;54.408;13.016;2023-06-14T02:59:05;14.80;92.70
420;DHT22;42600;54.408;13.016;2023-06-14T03:01:32;14.80;92.70
420;DHT22;42600;54.408;13.016;2023-06-14T03:04:00;14.80;92.70
420;DHT22;42600;54.408;13.016;2023-06-14T03:06:28;14.80;92.70
420;DHT22;42600;54.408;13.016;2023-06-14T03:08:55;14.80;92.70
420;DHT22;42600;54.408;13.016;2023-06-14T03:11:24;14.80;92.70
420;DHT22;42600;54.408;13.016;2023-06-14T03:13:51;14.80;92.70
420;DHT22;42600;54.408;13.016;2023-06-14T03:16:17;14.80;92.70
420;DHT22;42600;54.408;13.016;2023-06-14T03:18:45;14.80;92.70
420;DHT22;42600;54.408;13.016;2023-06-14T03:21:12;14.80;92.70
420;DHT22;42600;54.408;13.016;2023-06-14T03:23:42;14.90;92.70
420;DHT22;42600;54.408;13.016;2023-06-14T03:26:09;14.90;92.70
420;DHT22;42600;54.408;13.016;2023-06-14T03:28:40;15.00;92.70
420;DHT22;42600;54.408;13.016;2023-06-14T03:31:06;15.10;92.70
420;DHT22;42600;54.408;13.016;2023-06-14T03:33:34;15.10;92.70
420;DHT22;42600;54.408;13.016;2023-06-14T03:36:01;15.10;92.70
420;DHT22;42600;54.408;13.016;2023-06-14T03:38:28;15.20;92.70
420;DHT22;42600;54.408;13.016;2023-06-14T03:40:56;15.20;92.70
420;DHT22;42600;54.408;13.016;2023-06-14T03:43:22;15.30;92.70
420;DHT22;42600;54.408;13.016;2023-06-14T03:45:49;15.30;92.70
420;DHT22;42600;54.408;13.016;2023-06-14T03:48:16;15.30;92.70
420;DHT22;42600;54.408;13.016;2023-06-14T03:50:42;15.40;92.70
420;DHT22;42600;54.408;13.016;2023-06-14T03:53:10;15.40;92.70
420;DHT22;42600;54.408;13.016;2023-06-14T03:55:37;15.50;92.70
420;DHT22;42600;54.408;13.016;2023-06-14T03:58:06;15.60;92.70
420;DHT22;42600;54.408;13.016;2023-06-14T04:00:32;15.70;92.70
420;DHT22;42600;54.408;13.016;2023-06-14T04:02:59;15.80;92.70
420;DHT22;42600;54.408;13.016;2023-06-14T04:05:26;15.80;92.70
420;DHT22;42600;54.408;13.016;2023-06-14T04:07:52;15.90;92.70
420;DHT22;42600;54.408;13.016;2023-06-14T04:10:21;15.90;92.70
420;DHT22;42600;54.408;13.016;2023-06-14T04:12:48;16.00;92.70
420;DHT22;42600;54.408;13.016;2023-06-14T04:15:16;16.10;92.70
420;DHT22;42600;54.408;13.016;2023-06-14T04:17:42;16.10;92.70
420;DHT22;42600;54.408;13.016;2023-06-14T04:20:09;16.20;92.70
420;DHT22;42600;54.408;13.016;2023-06-14T04:22:36;16.30;92.70
420;DHT22;42600;54.408;13.016;2023-06-14T04:25:03;16.30;92.70
420;DHT22;42600;54.408;13.016;2023-06-14T04:27:31;16.40;92.70
420;DHT22;42600;54.408;13.016;2023-06-14T04:30:01;16.50;92.70
420;DHT22;42600;54.408;13.016;2023-06-14T04:32:29;16.60;92.50
420;DHT22;42600;54.408;13.016;2023-06-14T04:34:59;16.50;92.10
420;DHT22;42600;54.408;13.016;2023-06-14T04:37:28;16.60;92.10
420;DHT22;42600;54.408;13.016;2023-06-14T04:39:55;16.70;91.50
420;DHT22;42600;54.408;13.016;2023-06-14T04:42:23;16.70;90.80
420;DHT22;42600;54.408;13.016;2023-06-14T04:44:50;16.80;90.60
420;DHT22;42600;54.408;13.016;2023-06-14T04:47:21;16.90;90.40
420;DHT22;42600;54.408;13.016;2023-06-14T04:49:49;17.00;89.60
420;DHT22;42600;54.408;13.016;2023-06-14T04:52:17;17.00;89.30
420;DHT22;42600;54.408;13.016;2023-06-14T04:54:46;17.20;88.60
420;DHT22;42600;54.408;13.016;2023-06-14T04:57:12;17.20;89.40
420;DHT22;42600;54.408;13.016;2023-06-14T04:59:42;17.40;89.40
420;DHT22;42600;54.408;13.016;2023-06-14T05:02:09;17.40;88.90
420;DHT22;42600;54.408;13.016;2023-06-14T05:04:37;17.40;89.00
420;DHT22;42600;54.408;13.016;2023-06-14T05:07:06;17.50;88.90
420;DHT22;42600;54.408;13.016;2023-06-14T05:09:33;17.70;88.70
420;DHT22;42600;54.408;13.016;2023-06-14T05:11:59;17.70;88.10
420;DHT22;42600;54.408;13.016;2023-06-14T05:14:26;17.80;87.50
420;DHT22;42600;54.408;13.016;2023-06-14T05:16:53;18.00;86.80
420;DHT22;42600;54.408;13.016;2023-06-14T05:19:19;18.00;86.90
420;DHT22;42600;54.408;13.016;2023-06-14T05:21:47;18.10;87.90
420;DHT22;42600;54.408;13.016;2023-06-14T05:24:15;18.20;87.20
420;DHT22;42600;54.408;13.016;2023-06-14T05:26:43;18.30;86.70
420;DHT22;42600;54.408;13.016;2023-06-14T05:29:10;18.40;86.30
420;DHT22;42600;54.408;13.016;2023-06-14T05:31:37;18.50;86.80
420;DHT22;42600;54.408;13.016;2023-06-14T05:34:04;18.60;86.40
420;DHT22;42600;54.408;13.016;2023-06-14T05:36:30;18.60;86.30
420;DHT22;42600;54.408;13.016;2023-06-14T05:38:57;18.70;85.80
420;DHT22;42600;54.408;13.016;2023-06-14T05:41:26;18.70;85.40
420;DHT22;42600;54.408;13.016;2023-06-14T05:43:54;18.70;85.00
420;DHT22;42600;54.408;13.016;2023-06-14T05:46:21;18.80;83.90
420;DHT22;42600;54.408;13.016;2023-06-14T05:48:51;18.90;84.90
420;DHT22;42600;54.408;13.016;2023-06-14T05:51:17;19.00;83.90
420;DHT22;42600;54.408;13.016;2023-06-14T05:53:45;19.00;83.60
420;DHT22;42600;54.408;13.016;2023-06-14T05:56:12;19.10;83.90
420;DHT22;42600;54.408;13.016;2023-06-14T05:58:40;19.20;84.70
420;DHT22;42600;54.408;13.016;2023-06-14T06:01:07;19.30;83.80
420;DHT22;42600;54.408;13.016;2023-06-14T06:03:33;19.30;83.50
420;DHT22;42600;54.408;13.016;2023-06-14T06:06:00;19.40;84.30
420;DHT22;42600;54.408;13.016;2023-06-14T06:08:28;19.60;83.50
420;DHT22;42600;54.408;13.016;2023-06-14T06:10:55;19.60;83.30
420;DHT22;42600;54.408;13.016;2023-06-14T06:13:21;19.60;82.20
420;DHT22;42600;54.408;13.016;2023-06-14T06:15:49;19.60;82.20
420;DHT22;42600;54.408;13.016;2023-06-14T06:18:16;19.60;81.40
420;DHT22;42600;54.408;13.016;2023-06-14T06:20:42;19.60;80.90
420;DHT22;42600;54.408;13.016;2023-06-14T06:23:09;19.70;82.00
420;DHT22;42600;54.408;13.016;2023-06-14T06:25:36;19.70;80.80
420;DHT22;42600;54.408;13.016;2023-06-14T06:28:02;19.80;81.50
420;DHT22;42600;54.408;13.016;2023-06-14T06:30:29;19.80;80.80
420;DHT22;42600;54.408;13.016;2023-06-14T06:32:57;19.80;82.20
420;DHT22;42600;54.408;13.016;2023-06-14T06:35:24;19.80;83.20
420;DHT22;42600;54.408;13.016;2023-06-14T06:37:51;19.80;83.30
420;DHT22;42600;54.408;13.016;2023-06-14T06:40:18;19.90;84.00
420;DHT22;42600;54.408;13.016;2023-06-14T06:42:44;20.00;82.90
420;DHT22;42600;54.408;13.016;2023-06-14T06:45:11;20.10;82.50
420;DHT22;42600;54.408;13.016;2023-06-14T06:47:37;20.00;82.20
420;DHT22;42600;54.408;13.016;2023-06-14T06:50:07;20.00;82.10
420;DHT22;42600;54.408;13.016;2023-06-14T06:52:34;20.00;81.90
420;DHT22;42600;54.408;13.016;2023-06-14T06:55:01;20.00;82.40
420;DHT22;42600;54.408;13.016;2023-06-14T06:57:27;20.00;82.30
420;DHT22;42600;54.408;13.016;2023-06-14T06:59:55;20.00;81.30
420;DHT22;42600;54.408;13.016;2023-06-14T07:02:21;19.90;81.00
420;DHT22;42600;54.408;13.016;2023-06-14T07:04:48;19.90;80.90
420;DHT22;42600;54.408;13.016;2023-06-14T07:07:17;19.90;79.50
420;DHT22;42600;54.408;13.016;2023-06-14T07:09:43;19.90;80.40
420;DHT22;42600;54.408;13.016;2023-06-14T07:12:11;20.00;79.10
420;DHT22;42600;54.408;13.016;2023-06-14T07:14:38;20.00;78.10
420;DHT22;42600;54.408;13.016;2023-06-14T07:17:04;19.90;78.20
420;DHT22;42600;54.408;13.016;2023-06-14T07:19:31;19.90;77.60
420;DHT22;42600;54.408;13.016;2023-06-14T07:21:58;19.80;79.10
420;DHT22;42600;54.408;13.016;2023-06-14T07:24:26;19.70;79.20
420;DHT22;42600;54.408;13.016;2023-06-14T07:26:53;19.60;80.40
420;DHT22;42600;54.408;13.016;2023-06-14T07:29:21;19.40;78.60
420;DHT22;42600;54.408;13.016;2023-06-14T07:31:48;19.40;79.50
420;DHT22;42600;54.408;13.016;2023-06-14T07:34:14;19.40;79.00
420;DHT22;42600;54.408;13.016;2023-06-14T07:36:41;19.40;79.20
420;DHT22;42600;54.408;13.016;2023-06-14T07:39:09;19.30;78.70
420;DHT22;42600;54.408;13.016;2023-06-14T07:41:37;19.30;78.20
420;DHT22;42600;54.408;13.016;2023-06-14T07:44:04;19.30;78.30
420;DHT22;42600;54.408;13.016;2023-06-14T07:46:31;19.20;78.20
420;DHT22;42600;54.408;13.016;2023-06-14T07:48:59;19.30;79.90
420;DHT22;42600;54.408;13.016;2023-06-14T07:51:26;19.60;80.50
420;DHT22;42600;54.408;13.016;2023-06-14T07:53:53;19.80;79.40
420;DHT22;42600;54.408;13.016;2023-06-14T07:56:19;19.70;78.90
420;DHT22;42600;54.408;13.016;2023-06-14T07:58:48;19.70;78.90
420;DHT22;42600;54.408;13.016;2023-06-14T08:01:14;19.70;78.60
420;DHT22;42600;54.408;13.016;2023-06-14T08:03:42;19.70;77.00
420;DHT22;42600;54.408;13.016;2023-06-14T08:06:09;19.60;74.90
420;DHT22;42600;54.408;13.016;2023-06-14T08:08:36;19.60;75.80
420;DHT22;42600;54.408;13.016;2023-06-14T08:11:02;19.70;73.80
420;DHT22;42600;54.408;13.016;2023-06-14T08:13:29;19.80;74.50
420;DHT22;42600;54.408;13.016;2023-06-14T08:15:57;19.90;73.50
420;DHT22;42600;54.408;13.016;2023-06-14T08:18:24;20.00;73.50
420;DHT22;42600;54.408;13.016;2023-06-14T08:20:50;20.20;71.10
420;DHT22;42600;54.408;13.016;2023-06-14T08:23:18;20.30;72.40
420;DHT22;42600;54.408;13.016;2023-06-14T08:25:46;20.50;71.10
420;DHT22;42600;54.408;13.016;2023-06-14T08:28:13;20.60;70.40
420;DHT22;42600;54.408;13.016;2023-06-14T08:30:39;20.60;69.40
420;DHT22;42600;54.408;13.016;2023-06-14T08:33:07;20.60;69.80
420;DHT22;42600;54.408;13.016;2023-06-14T08:35:34;20.70;68.70
420;DHT22;42600;54.408;13.016;2023-06-14T08:38:02;20.90;69.00
420;DHT22;42600;54.408;13.016;2023-06-14T08:40:30;20.80;68.30
420;DHT22;42600;54.408;13.016;2023-06-14T08:42:57;20.80;66.50
420;DHT22;42600;54.408;13.016;2023-06-14T08:45:24;20.80;66.20
420;DHT22;42600;54.408;13.016;2023-06-14T08:47:51;20.80;65.70
420;DHT22;42600;54.408;13.016;2023-06-14T08:50:21;20.90;64.30
420;DHT22;42600;54.408;13.016;2023-06-14T08:52:55;20.80;65.90
420;DHT22;42600;54.408;13.016;2023-06-14T08:55:23;20.80;64.40
420;DHT22;42600;54.408;13.016;2023-06-14T08:57:53;20.90;64.00
420;DHT22;42600;54.408;13.016;2023-06-14T09:00:21;21.00;63.60
420;DHT22;42600;54.408;13.016;2023-06-14T09:02:49;21.00;62.70
420;DHT22;42600;54.408;13.016;2023-06-14T09:05:22;21.10;63.70
420;DHT22;42600;54.408;13.016;2023-06-14T09:07:49;21.20;64.70
420;DHT22;42600;54.408;13.016;2023-06-14T09:10:17;21.20;64.60
420;DHT22;42600;54.408;13.016;2023-06-14T09:12:43;21.30;64.80
420;DHT22;42600;54.408;13.016;2023-06-14T09:15:10;21.40;66.30
420;DHT22;42600;54.408;13.016;2023-06-14T09:17:38;21.50;65.90
420;DHT22;42600;54.408;13.016;2023-06-14T09:20:06;21.50;65.70
420;DHT22;42600;54.408;13.016;2023-06-14T09:22:36;21.50;65.50
420;DHT22;42600;54.408;13.016;2023-06-14T09:25:04;21.30;65.40
420;DHT22;42600;54.408;13.016;2023-06-14T09:27:31;21.20;67.50
420;DHT22;42600;54.408;13.016;2023-06-14T09:29:58;21.30;66.80
420;DHT22;42600;54.408;13.016;2023-06-14T09:32:25;21.50;67.70
420;DHT22;42600;54.408;13.016;2023-06-14T09:34:51;21.50;68.30
420;DHT22;42600;54.408;13.016;2023-06-14T09:37:28;21.50;67.10
420;DHT22;42600;54.408;13.016;2023-06-14T09:39:57;21.40;67.80
420;DHT22;42600;54.408;13.016;2023-06-14T09:42:24;21.30;68.10
420;DHT22;42600;54.408;13.016;2023-06-14T09:44:52;21.60;68.10
420;DHT22;42600;54.408;13.016;2023-06-14T09:47:19;21.80;67.80
420;DHT22;42600;54.408;13.016;2023-06-14T09:49:45;21.90;67.70
420;DHT22;42600;54.408;13.016;2023-06-14T09:52:14;21.90;65.90
420;DHT22;42600;54.408;13.016;2023-06-14T09:54:42;21.80;66.10
420;DHT22;42600;54.408;13.016;2023-06-14T09:57:11;22.00;67.50
420;DHT22;42600;54.408;13.016;2023-06-14T09:59:40;22.00;67.40
420;DHT22;42600;54.408;13.016;2023-06-14T10:02:12;22.00;66.00
420;DHT22;42600;54.408;13.016;2023-06-14T10:04:44;22.00;67.00
420;DHT22;42600;54.408;13.016;2023-06-14T10:07:13;22.00;66.90
420;DHT22;42600;54.408;13.016;2023-06-14T10:09:41;22.10;68.00
420;DHT22;42600;54.408;13.016;2023-06-14T10:12:12;22.20;67.30
420;DHT22;42600;54.408;13.016;2023-06-14T10:14:44;22.00;66.60
420;DHT22;42600;54.408;13.016;2023-06-14T10:17:20;22.20;66.60
420;DHT22;42600;54.408;13.016;2023-06-14T10:19:50;22.10;67.70
420;DHT22;42600;54.408;13.016;2023-06-14T10:22:24;22.30;68.30
420;DHT22;42600;54.408;13.016;2023-06-14T10:24:52;22.40;66.00
420;DHT22;42600;54.408;13.016;2023-06-14T10:27:20;22.30;65.00
420;DHT22;42600;54.408;13.016;2023-06-14T10:30:07;22.40;65.80
420;DHT22;42600;54.408;13.016;2023-06-14T10:32:34;22.40;66.40
420;DHT22;42600;54.408;13.016;2023-06-14T10:35:02;22.30;66.20
420;DHT22;42600;54.408;13.016;2023-06-14T10:37:31;22.20;65.60
420;DHT22;42600;54.408;13.016;2023-06-14T10:39:57;22.20;67.10
420;DHT22;42600;54.408;13.016;2023-06-14T10:42:31;22.40;67.60
420;DHT22;42600;54.408;13.016;2023-06-14T10:44:59;22.50;62.10
420;DHT22;42600;54.408;13.016;2023-06-14T10:47:27;22.50;63.10
420;DHT22;42600;54.408;13.016;2023-06-14T10:49:55;22.60;63.60
420;DHT22;42600;54.408;13.016;2023-06-14T10:52:27;22.70;61.60
420;DHT22;42600;54.408;13.016;2023-06-14T10:55:08;22.60;62.20
420;DHT22;42600;54.408;13.016;2023-06-14T10:57:38;22.50;61.70
420;DHT22;42600;54.408;13.016;2023-06-14T11:00:06;22.50;61.90
420;DHT22;42600;54.408;13.016;2023-06-14T11:03:05;22.60;62.30
420;DHT22;42600;54.408;13.016;2023-06-14T11:05:49;22.60;60.60
420;DHT22;42600;54.408;13.016;2023-06-14T11:09:01;22.60;61.90
420;DHT22;42600;54.408;13.016;2023-06-14T11:11:32;22.70;63.50
420;DHT22;42600;54.408;13.016;2023-06-14T11:14:01;22.70;62.20
420;DHT22;42600;54.408;13.016;2023-06-14T11:16:28;22.70;62.00
420;DHT22;42600;54.408;13.016;2023-06-14T11:18:57;22.70;62.60
420;DHT22;42600;54.408;13.016;2023-06-14T11:21:24;22.70;61.70
420;DHT22;42600;54.408;13.016;2023-06-14T11:23:56;22.70;60.50
420;DHT22;42600;54.408;13.016;2023-06-14T11:26:26;22.70;61.20
420;DHT22;42600;54.408;13.016;2023-06-14T11:28:56;22.60;60.30
420;DHT22;42600;54.408;13.016;2023-06-14T11:31:25;22.60;60.30
420;DHT22;42600;54.408;13.016;2023-06-14T11:33:53;22.60;57.30
420;DHT22;42600;54.408;13.016;2023-06-14T11:36:20;22.60;59.10
420;DHT22;42600;54.408;13.016;2023-06-14T11:38:47;22.50;59.60
420;DHT22;42600;54.408;13.016;2023-06-14T11:41:14;22.60;57.30
420;DHT22;42600;54.408;13.016;2023-06-14T11:43:40;22.50;57.30
420;DHT22;42600;54.408;13.016;2023-06-14T11:46:12;22.50;58.60
420;DHT22;42600;54.408;13.016;2023-06-14T11:48:42;22.60;58.80
420;DHT22;42600;54.408;13.016;2023-06-14T11:51:09;22.50;59.00
420;DHT22;42600;54.408;13.016;2023-06-14T11:53:36;22.50;59.00
420;DHT22;42600;54.408;13.016;2023-06-14T11:56:03;22.50;60.40
420;DHT22;42600;54.408;13.016;2023-06-14T11:58:30;22.50;58.10
420;DHT22;42600;54.408;13.016;2023-06-14T12:00:57;22.40;58.40
420;DHT22;42600;54.408;13.016;2023-06-14T12:03:24;22.40;58.10
420;DHT22;42600;54.408;13.016;2023-06-14T12:06:06;22.50;56.80
420;DHT22;42600;54.408;13.016;2023-06-14T12:08:35;22.50;58.10
420;DHT22;42600;54.408;13.016;2023-06-14T12:11:04;22.50;57.10
420;DHT22;42600;54.408;13.016;2023-06-14T12:13:31;22.50;59.20
420;DHT22;42600;54.408;13.016;2023-06-14T12:15:58;22.60;56.00
420;DHT22;42600;54.408;13.016;2023-06-14T12:18:32;22.50;55.50
420;DHT22;42600;54.408;13.016;2023-06-14T12:21:01;22.40;56.30
420;DHT22;42600;54.408;13.016;2023-06-14T12:23:42;22.20;57.20
420;DHT22;42600;54.408;13.016;2023-06-14T12:26:09;22.30;57.10
420;DHT22;42600;54.408;13.016;2023-06-14T12:28:35;22.40;57.40
420;DHT22;42600;54.408;13.016;2023-06-14T12:31:02;22.50;57.10
420;DHT22;42600;54.408;13.016;2023-06-14T12:33:28;22.30;56.20
420;DHT22;42600;54.408;13.016;2023-06-14T12:35:55;22.20;56.00
420;DHT22;42600;54.408;13.016;2023-06-14T12:38:23;22.30;56.70
420;DHT22;42600;54.408;13.016;2023-06-14T12:40:51;22.40;58.10
420;DHT22;42600;54.408;13.016;2023-06-14T12:43:17;22.40;56.40
420;DHT22;42600;54.408;13.016;2023-06-14T12:45:44;22.50;56.30
420;DHT22;42600;54.408;13.016;2023-06-14T12:48:10;22.50;59.00
420;DHT22;42600;54.408;13.016;2023-06-14T12:50:37;22.50;55.90
420;DHT22;42600;54.408;13.016;2023-06-14T12:53:04;22.40;56.00
420;DHT22;42600;54.408;13.016;2023-06-14T12:55:30;22.30;55.80
420;DHT22;42600;54.408;13.016;2023-06-14T12:57:58;22.20;56.00
420;DHT22;42600;54.408;13.016;2023-06-14T13:00:24;22.30;55.40
420;DHT22;42600;54.408;13.016;2023-06-14T13:02:52;22.40;56.30
420;DHT22;42600;54.408;13.016;2023-06-14T13:05:18;22.40;55.80
420;DHT22;42600;54.408;13.016;2023-06-14T13:07:45;22.50;57.90
420;DHT22;42600;54.408;13.016;2023-06-14T13:10:12;22.50;54.00
420;DHT22;42600;54.408;13.016;2023-06-14T13:12:38;22.50;58.80
420;DHT22;42600;54.408;13.016;2023-06-14T13:15:07;22.50;59.30
420;DHT22;42600;54.408;13.016;2023-06-14T13:17:34;22.40;61.00
420;DHT22;42600;54.408;13.016;2023-06-14T13:20:04;22.50;59.70
420;DHT22;42600;54.408;13.016;2023-06-14T13:22:31;22.30;59.90
420;DHT22;42600;54.408;13.016;2023-06-14T13:24:57;22.30;59.00
420;DHT22;42600;54.408;13.016;2023-06-14T13:27:24;22.40;60.40
420;DHT22;42600;54.408;13.016;2023-06-14T13:29:50;22.30;59.60
420;DHT22;42600;54.408;13.016;2023-06-14T13:32:20;22.20;61.10
420;DHT22;42600;54.408;13.016;2023-06-14T13:34:46;22.10;61.80
420;DHT22;42600;54.408;13.016;2023-06-14T13:37:13;22.00;60.30
420;DHT22;42600;54.408;13.016;2023-06-14T13:39:39;22.10;61.50
420;DHT22;42600;54.408;13.016;2023-06-14T13:42:07;22.20;60.60
420;DHT22;42600;54.408;13.016;2023-06-14T13:44:33;22.30;64.30
420;DHT22;42600;54.408;13.016;2023-06-14T13:47:00;22.30;65.80
420;DHT22;42600;54.408;13.016;2023-06-14T13:49:28;22.10;65.30
420;DHT22;42600;54.408;13.016;2023-06-14T13:51:54;22.20;65.60
420;DHT22;42600;54.408;13.016;2023-06-14T13:54:22;22.20;66.20
420;DHT22;42600;54.408;13.016;2023-06-14T13:56:48;22.20;66.10
420;DHT22;42600;54.408;13.016;2023-06-14T13:59:15;22.10;63.60
420;DHT22;42600;54.408;13.016;2023-06-14T14:01:42;22.00;62.80
420;DHT22;42600;54.408;13.016;2023-06-14T14:04:09;21.80;63.30
420;DHT22;42600;54.408;13.016;2023-06-14T14:06:37;21.70;63.20
420;DHT22;42600;54.408;13.016;2023-06-14T14:09:04;21.70;65.00
420;DHT22;42600;54.408;13.016;2023-06-14T14:11:31;22.00;65.90
420;DHT22;42600;54.408;13.016;2023-06-14T14:13:58;22.10;65.60
420;DHT22;42600;54.408;13.016;2023-06-14T14:16:25;22.20;66.30
420;DHT22;42600;54.408;13.016;2023-06-14T14:18:52;22.20;65.00
420;DHT22;42600;54.408;13.016;2023-06-14T14:21:19;22.20;65.70
420;DHT22;42600;54.408;13.016;2023-06-14T14:23:47;22.30;66.20
420;DHT22;42600;54.408;13.016;2023-06-14T14:26:15;22.60;64.60
420;DHT22;42600;54.408;13.016;2023-06-14T14:28:41;22.40;65.30
420;DHT22;42600;54.408;13.016;2023-06-14T14:31:08;22.30;66.20
420;DHT22;42600;54.408;13.016;2023-06-14T14:33:34;22.50;66.40
420;DHT22;42600;54.408;13.016;2023-06-14T14:36:01;22.40;66.40
420;DHT22;42600;54.408;13.016;2023-06-14T14:38:29;22.40;67.00
420;DHT22;42600;54.408;13.016;2023-06-14T14:40:57;22.40;66.10
420;DHT22;42600;54.408;13.016;2023-06-14T14:43:23;22.30;67.40
420;DHT22;42600;54.408;13.016;2023-06-14T14:45:50;22.10;64.70
420;DHT22;42600;54.408;13.016;2023-06-14T14:48:17;22.00;66.30
420;DHT22;42600;54.408;13.016;2023-06-14T14:50:43;21.80;65.60
420;DHT22;42600;54.408;13.016;2023-06-14T14:53:10;21.90;65.00
420;DHT22;42600;54.408;13.016;2023-06-14T14:55:36;22.00;66.00
420;DHT22;42600;54.408;13.016;2023-06-14T14:58:05;22.20;67.70
420;DHT22;42600;54.408;13.016;2023-06-14T15:00:33;22.50;67.20
420;DHT22;42600;54.408;13.016;2023-06-14T15:03:00;22.90;66.70
420;DHT22;42600;54.408;13.016;2023-06-14T15:05:26;22.70;64.80
420;DHT22;42600;54.408;13.016;2023-06-14T15:07:53;22.30;65.90
420;DHT22;42600;54.408;13.016;2023-06-14T15:10:20;22.20;66.30
420;DHT22;42600;54.408;13.016;2023-06-14T15:12:46;22.30;66.70
420;DHT22;42600;54.408;13.016;2023-06-14T15:15:14;22.10;65.10
420;DHT22;42600;54.408;13.016;2023-06-14T15:17:41;21.80;65.80
420;DHT22;42600;54.408;13.016;2023-06-14T15:20:08;21.70;65.90
420;DHT22;42600;54.408;13.016;2023-06-14T15:22:35;21.70;64.10
420;DHT22;42600;54.408;13.016;2023-06-14T15:25:01;21.80;64.70
420;DHT22;42600;54.408;13.016;2023-06-14T15:27:28;21.70;64.10
420;DHT22;42600;54.408;13.016;2023-06-14T15:29:55;21.60;64.10
420;DHT22;42600;54.408;13.016;2023-06-14T15:32:23;21.50;64.60
420;DHT22;42600;54.408;13.016;2023-06-14T15:34:49;21.80;65.70
420;DHT22;42600;54.408;13.016;2023-06-14T15:37:16;21.80;64.80
420;DHT22;42600;54.408;13.016;2023-06-14T15:39:42;21.60;64.00
420;DHT22;42600;54.408;13.016;2023-06-14T15:42:09;21.90;63.40
420;DHT22;42600;54.408;13.016;2023-06-14T15:44:36;21.60;63.30
420;DHT22;42600;54.408;13.016;2023-06-14T15:47:03;21.50;64.20
420;DHT22;42600;54.408;13.016;2023-06-14T15:49:31;21.70;64.40